createdAt,value
2018-08-17T00:01:54.333Z,3.03
2018-08-17T00:04:22.571Z,2.87
2018-08-17T00:06:50.802Z,3.13
2018-08-17T00:09:19.029Z,3.07
2018-08-17T00:11:47.259Z,3.40
2018-08-17T00:14:15.490Z,3.07
2018-08-17T00:16:43.711Z,3.27
2018-08-17T00:19:11.950Z,2.90
2018-08-17T00:21:40.203Z,3.47
2018-08-17T00:24:08.432Z,2.90
2018-08-17T00:26:36.658Z,2.90
2018-08-17T00:29:04.905Z,3.03
2018-08-17T00:31:33.158Z,2.83
2018-08-17T00:34:01.387Z,2.70
2018-08-17T00:36:29.620Z,3.30
2018-08-17T00:38:57.835Z,3.10
2018-08-17T00:41:26.079Z,3.00
2018-08-17T00:43:54.292Z,3.37
2018-08-17T00:46:22.540Z,3.03
2018-08-17T00:48:50.759Z,3.23
2018-08-17T00:51:18.994Z,3.43
2018-08-17T00:53:47.219Z,3.00
2018-08-17T00:56:15.445Z,3.20
2018-08-17T00:58:43.666Z,3.00
2018-08-17T01:01:11.911Z,3.10
2018-08-17T01:03:40.132Z,3.10
2018-08-17T01:06:08.363Z,2.97
2018-08-17T01:08:36.591Z,2.77
2018-08-17T01:11:04.850Z,2.90
2018-08-17T01:13:33.057Z,3.23
2018-08-17T01:16:01.287Z,3.00
2018-08-17T01:18:29.501Z,4.53
2018-08-17T01:20:57.734Z,3.20
2018-08-17T01:23:25.944Z,2.90
2018-08-17T01:25:54.184Z,2.90
2018-08-17T01:28:22.795Z,2.90
2018-08-17T01:30:51.027Z,2.93
2018-08-17T01:33:19.269Z,3.37
2018-08-17T01:35:47.470Z,3.37
2018-08-17T01:38:15.723Z,2.90
2018-08-17T01:40:43.950Z,3.37
2018-08-17T01:43:12.192Z,3.50
2018-08-17T01:45:40.427Z,3.00
2018-08-17T01:48:08.679Z,3.00
2018-08-17T01:50:36.946Z,2.60
2018-08-17T01:53:05.225Z,3.40
2018-08-17T01:55:33.443Z,3.30
2018-08-17T01:58:01.674Z,3.00
2018-08-17T02:00:29.914Z,3.40
2018-08-17T02:02:58.162Z,3.17
2018-08-17T02:05:26.390Z,2.70
2018-08-17T02:07:54.626Z,3.00
2018-08-17T02:10:22.862Z,2.60
2018-08-17T02:12:51.091Z,3.57
2018-08-17T02:15:19.345Z,3.00
2018-08-17T02:17:47.569Z,3.63
2018-08-17T02:20:15.795Z,2.87
2018-08-17T02:22:44.090Z,3.00
2018-08-17T02:25:12.316Z,3.10
2018-08-17T02:27:40.543Z,3.53
2018-08-17T02:30:08.768Z,3.30
2018-08-17T02:32:37.003Z,3.20
2018-08-17T02:35:05.771Z,3.73
2018-08-17T02:37:34.003Z,3.70
2018-08-17T02:40:02.244Z,3.10
2018-08-17T02:42:30.474Z,3.80
2018-08-17T02:44:58.706Z,3.40
2018-08-17T02:47:26.959Z,3.20
2018-08-17T02:49:55.178Z,3.13
2018-08-17T02:52:23.421Z,3.37
2018-08-17T02:54:51.739Z,3.37
2018-08-17T02:57:19.961Z,3.57
2018-08-17T02:59:48.183Z,3.23
2018-08-17T03:02:16.410Z,3.53
2018-08-17T03:04:44.625Z,3.40
2018-08-17T03:07:12.846Z,3.53
2018-08-17T03:09:41.068Z,2.90
2018-08-17T03:12:09.278Z,3.40
2018-08-17T03:14:37.527Z,3.60
2018-08-17T03:17:05.860Z,3.50
2018-08-17T03:19:34.093Z,3.80
2018-08-17T03:22:05.452Z,3.70
2018-08-17T03:27:08.402Z,3.60
2018-08-17T03:29:36.634Z,3.60
2018-08-17T03:32:04.854Z,3.23
2018-08-17T03:34:33.074Z,3.40
2018-08-17T03:37:01.298Z,3.50
2018-08-17T03:39:36.239Z,3.53
2018-08-17T03:42:04.557Z,3.67
2018-08-17T03:44:32.782Z,3.57
2018-08-17T03:47:01.003Z,3.97
2018-08-17T03:49:29.236Z,4.00
2018-08-17T03:51:57.468Z,3.30
2018-08-17T03:54:25.690Z,3.50
2018-08-17T03:56:53.909Z,4.00
2018-08-17T03:59:22.148Z,3.63
2018-08-17T04:01:50.363Z,4.07
2018-08-17T04:04:18.595Z,3.60
2018-08-17T04:06:46.809Z,3.30
2018-08-17T04:09:15.035Z,3.80
2018-08-17T04:11:43.255Z,4.73
2018-08-17T04:14:11.479Z,4.50
2018-08-17T04:16:39.707Z,3.67
2018-08-17T04:19:07.934Z,3.67
2018-08-17T04:21:36.159Z,3.83
2018-08-17T04:24:04.383Z,3.60
2018-08-17T04:26:32.603Z,3.57
2018-08-17T04:29:00.831Z,3.77
2018-08-17T04:31:29.063Z,3.70
2018-08-17T04:33:57.296Z,3.13
2018-08-17T04:36:25.522Z,4.30
2018-08-17T04:38:53.734Z,3.87
2018-08-17T04:41:21.955Z,3.40
2018-08-17T04:43:50.262Z,3.87
2018-08-17T04:46:18.439Z,3.80
2018-08-17T04:48:46.682Z,3.70
2018-08-17T04:51:14.914Z,3.93
2018-08-17T04:53:43.148Z,3.47
2018-08-17T04:56:11.377Z,3.80
2018-08-17T04:58:39.594Z,3.73
2018-08-17T05:01:07.834Z,3.87
2018-08-17T05:03:36.079Z,3.93
2018-08-17T05:06:04.327Z,3.80
2018-08-17T05:08:32.541Z,3.80
2018-08-17T05:11:00.815Z,4.27
2018-08-17T05:13:29.036Z,4.20
2018-08-17T05:15:57.258Z,4.27
2018-08-17T05:18:25.457Z,3.40
2018-08-17T05:20:53.710Z,4.30
2018-08-17T05:23:21.964Z,4.10
2018-08-17T05:25:50.133Z,4.00
2018-08-17T05:28:18.375Z,4.00
2018-08-17T05:30:46.618Z,3.87
2018-08-17T05:33:14.839Z,4.07
2018-08-17T05:35:43.076Z,4.10
2018-08-17T05:38:11.334Z,4.10
2018-08-17T05:40:39.662Z,4.27
2018-08-17T05:43:07.870Z,4.00
2018-08-17T05:45:36.098Z,4.30
2018-08-17T05:48:04.322Z,4.20
2018-08-17T05:50:33.347Z,3.87
2018-08-17T05:53:02.115Z,3.67
2018-08-17T05:55:30.378Z,3.87
2018-08-17T05:57:58.623Z,3.73
2018-08-17T06:00:26.868Z,4.60
2018-08-17T06:02:55.174Z,4.10
2018-08-17T06:05:23.327Z,4.20
2018-08-17T06:07:51.527Z,4.60
2018-08-17T06:10:19.774Z,3.90
2018-08-17T06:12:47.982Z,3.90
2018-08-17T06:15:16.181Z,4.20
2018-08-17T06:17:44.414Z,4.47
2018-08-17T06:20:12.652Z,4.80
2018-08-17T06:22:40.933Z,4.63
2018-08-17T06:25:10.836Z,5.13
2018-08-17T06:27:39.648Z,4.10
2018-08-17T06:30:10.151Z,5.97
2018-08-17T06:32:44.929Z,4.40
2018-08-17T06:35:13.768Z,5.13
2018-08-17T06:37:42.798Z,4.60
2018-08-17T06:40:11.261Z,4.57
2018-08-17T06:42:39.490Z,3.80
2018-08-17T06:45:10.570Z,4.27
2018-08-17T06:47:38.822Z,4.47
2018-08-17T06:50:08.662Z,4.77
2018-08-17T06:52:37.361Z,4.33
2018-08-17T06:55:06.962Z,4.30
2018-08-17T06:57:35.180Z,4.60
2018-08-17T07:00:05.782Z,3.83
2018-08-17T07:02:34.049Z,4.03
2018-08-17T07:05:02.271Z,4.07
2018-08-17T07:07:30.507Z,4.07
2018-08-17T07:09:59.435Z,3.90
2018-08-17T07:12:27.963Z,3.40
2018-08-17T07:14:56.723Z,4.10
2018-08-17T07:17:25.006Z,3.70
2018-08-17T07:19:53.347Z,4.17
2018-08-17T07:22:21.645Z,4.07
2018-08-17T07:24:49.964Z,3.90
2018-08-17T07:27:18.183Z,4.17
2018-08-17T07:29:46.443Z,3.70
2018-08-17T07:32:14.712Z,4.13
2018-08-17T07:34:42.944Z,4.00
2018-08-17T07:37:11.190Z,3.80
2018-08-17T07:39:39.507Z,4.17
2018-08-17T07:42:07.766Z,3.50
2018-08-17T07:44:35.999Z,3.77
2018-08-17T07:47:04.229Z,3.53
2018-08-17T07:49:32.462Z,3.73
2018-08-17T07:52:00.699Z,4.00
2018-08-17T07:54:28.941Z,3.77
2018-08-17T07:56:57.163Z,3.63
2018-08-17T07:59:25.435Z,3.43
2018-08-17T08:01:53.681Z,3.27
2018-08-17T08:04:21.907Z,3.83
2018-08-17T08:06:50.127Z,3.30
2018-08-17T08:09:18.350Z,3.67
2018-08-17T08:11:46.562Z,3.43
2018-08-17T08:14:14.796Z,3.43
2018-08-17T08:16:43.699Z,3.13
2018-08-17T08:19:14.019Z,3.10
2018-08-17T08:21:46.687Z,3.10
2018-08-17T08:24:14.916Z,3.37
2018-08-17T08:26:43.179Z,3.57
2018-08-17T08:29:11.598Z,3.87
2018-08-17T08:31:39.840Z,4.90
2018-08-17T08:34:08.076Z,3.83
2018-08-17T08:36:36.472Z,3.80
2018-08-17T08:39:07.577Z,3.20
2018-08-17T08:41:42.439Z,3.57
2018-08-17T08:44:10.653Z,4.07
2018-08-17T08:46:38.927Z,3.50
2018-08-17T08:49:07.378Z,3.70
2018-08-17T08:51:35.654Z,3.17
2018-08-17T08:54:03.942Z,3.93
2018-08-17T08:56:32.169Z,3.50
2018-08-17T08:59:00.403Z,3.50
2018-08-17T09:01:28.630Z,3.17
2018-08-17T09:03:57.232Z,3.60
2018-08-17T09:06:25.446Z,3.80
2018-08-17T09:08:53.669Z,3.77
2018-08-17T09:11:21.998Z,3.80
2018-08-17T09:13:50.252Z,3.73
2018-08-17T09:16:18.515Z,3.70
2018-08-17T09:18:46.754Z,3.50
2018-08-17T09:21:14.980Z,3.50
2018-08-17T09:23:43.198Z,3.50
2018-08-17T09:26:11.419Z,3.60
2018-08-17T09:28:39.738Z,3.83
2018-08-17T09:31:08.071Z,3.73
2018-08-17T09:33:36.642Z,3.30
2018-08-17T09:36:05.063Z,3.13
2018-08-17T09:38:33.243Z,3.60
2018-08-17T09:41:01.555Z,3.70
2018-08-17T09:43:29.777Z,3.87
2018-08-17T09:45:58.057Z,3.93
2018-08-17T09:48:26.292Z,3.60
2018-08-17T09:50:54.512Z,3.67
2018-08-17T09:53:22.723Z,3.63
2018-08-17T09:55:51.000Z,4.03
2018-08-17T09:58:24.186Z,3.83
2018-08-17T10:01:01.063Z,3.40
2018-08-17T10:03:34.793Z,3.77
2018-08-17T10:07:08.072Z,3.30
2018-08-17T10:09:41.677Z,3.67
2018-08-17T10:12:09.897Z,3.60
2018-08-17T10:14:38.131Z,3.80
2018-08-17T10:17:07.158Z,3.73
2018-08-17T10:19:35.430Z,3.73
2018-08-17T10:22:04.124Z,3.80
2018-08-17T10:24:31.943Z,3.63
2018-08-17T10:27:00.178Z,3.47
2018-08-17T10:29:28.415Z,3.80
2018-08-17T10:32:03.336Z,3.40
2018-08-17T10:34:31.562Z,3.43
2018-08-17T10:36:59.785Z,3.50
2018-08-17T10:39:27.991Z,3.70
2018-08-17T10:41:56.303Z,3.93
2018-08-17T10:44:24.550Z,3.47
2018-08-17T10:46:52.790Z,3.57
2018-08-17T10:49:21.194Z,3.57
2018-08-17T10:51:49.418Z,3.50
2018-08-17T10:54:17.790Z,3.73
2018-08-17T10:56:46.014Z,4.07
2018-08-17T10:59:14.299Z,3.27
2018-08-17T11:01:43.806Z,3.37
2018-08-17T11:04:12.013Z,3.77
2018-08-17T11:06:40.345Z,3.53
2018-08-17T11:09:09.750Z,3.27
2018-08-17T11:11:39.758Z,3.20
2018-08-17T11:14:08.005Z,3.17
2018-08-17T11:16:36.233Z,3.40
2018-08-17T11:19:04.542Z,3.47
2018-08-17T11:21:32.774Z,3.37
2018-08-17T11:24:02.575Z,3.40
2018-08-17T11:26:30.816Z,3.63
2018-08-17T11:28:59.046Z,3.30
2018-08-17T11:31:27.287Z,2.87
2018-08-17T11:33:55.497Z,3.53
2018-08-17T11:36:24.506Z,3.70
2018-08-17T11:38:52.760Z,3.30
2018-08-17T11:41:21.024Z,3.70
2018-08-17T11:43:49.232Z,3.93
2018-08-17T11:46:17.459Z,3.53
2018-08-17T11:48:45.674Z,4.10
2018-08-17T11:51:13.899Z,3.90
2018-08-17T11:53:46.220Z,3.63
2018-08-17T11:56:14.480Z,3.80
2018-08-17T11:58:42.695Z,3.60
2018-08-17T12:01:16.393Z,3.60
2018-08-17T12:03:44.569Z,4.17
2018-08-17T12:06:12.794Z,4.07
2018-08-17T12:08:41.096Z,3.90
2018-08-17T12:11:09.334Z,3.60
2018-08-17T12:13:38.517Z,3.83
2018-08-17T12:16:10.434Z,3.53
2018-08-17T12:18:38.715Z,3.50
2018-08-17T12:21:06.950Z,3.50
2018-08-17T12:23:35.185Z,3.73
2018-08-17T12:26:03.393Z,3.90
2018-08-17T12:28:31.922Z,3.67
2018-08-17T12:31:00.595Z,4.27
2018-08-17T12:33:28.806Z,4.20
2018-08-17T12:35:57.014Z,4.87
2018-08-17T12:38:25.233Z,4.33
2018-08-17T12:40:54.422Z,4.50
2018-08-17T12:43:28.137Z,4.60
2018-08-17T12:45:56.346Z,4.20
2018-08-17T12:48:24.560Z,4.20
2018-08-17T12:50:52.802Z,3.50
2018-08-17T12:53:21.029Z,4.80
2018-08-17T12:55:49.250Z,4.00
2018-08-17T12:58:17.491Z,4.50
2018-08-17T13:00:45.709Z,4.97
2018-08-17T13:03:13.943Z,4.30
2018-08-17T13:05:42.146Z,5.40
2018-08-17T13:08:10.390Z,4.43
2018-08-17T13:10:38.616Z,4.20
2018-08-17T13:13:07.966Z,4.67
2018-08-17T13:15:36.729Z,3.90
2018-08-17T13:18:15.703Z,4.30
2018-08-17T13:20:44.346Z,4.40
2018-08-17T13:23:12.706Z,4.40
2018-08-17T13:25:41.528Z,4.80
2018-08-17T13:28:09.912Z,4.17
2018-08-17T13:30:38.122Z,4.40
2018-08-17T13:33:06.391Z,4.50
2018-08-17T13:35:34.617Z,4.60
2018-08-17T13:38:02.837Z,4.37
2018-08-17T13:40:31.070Z,4.40
2018-08-17T13:42:59.314Z,4.53
2018-08-17T13:45:27.530Z,5.27
2018-08-17T13:47:55.738Z,5.80
2018-08-17T13:50:24.040Z,4.80
2018-08-17T13:52:52.250Z,4.73
2018-08-17T13:55:20.532Z,4.63
2018-08-17T13:57:48.706Z,5.07
2018-08-17T14:00:16.967Z,4.57
2018-08-17T14:02:45.174Z,5.17
2018-08-17T14:05:13.399Z,5.00
2018-08-17T14:07:41.638Z,4.47
2018-08-17T14:10:11.018Z,4.93
2018-08-17T14:12:39.601Z,5.00
2018-08-17T14:15:09.021Z,4.80
2018-08-17T14:17:37.877Z,4.87
2018-08-17T14:20:09.178Z,4.77
2018-08-17T14:22:37.394Z,4.43
2018-08-17T14:25:06.175Z,4.73
2018-08-17T14:27:34.414Z,5.57
2018-08-17T14:30:02.683Z,4.83
2018-08-17T14:32:30.914Z,4.67
2018-08-17T14:34:59.147Z,5.13
2018-08-17T14:37:27.391Z,4.90
2018-08-17T14:39:55.625Z,4.83
2018-08-17T14:42:23.848Z,4.83
2018-08-17T14:44:52.097Z,5.47
2018-08-17T14:47:20.321Z,5.17
2018-08-17T14:49:48.551Z,5.20
2018-08-17T14:52:16.774Z,4.93
2018-08-17T14:54:45.003Z,4.83
2018-08-17T14:57:13.226Z,5.17
2018-08-17T14:59:41.447Z,5.00
2018-08-17T15:02:09.787Z,4.80
2018-08-17T15:04:38.035Z,4.60
2018-08-17T15:07:06.251Z,5.23
2018-08-17T15:09:34.467Z,5.10
2018-08-17T15:12:02.682Z,5.10
2018-08-17T15:14:30.906Z,4.90
2018-08-17T15:16:59.118Z,4.60
2018-08-17T15:19:27.360Z,4.73
2018-08-17T15:21:55.591Z,4.93
2018-08-17T15:24:23.833Z,4.80
2018-08-17T15:26:52.061Z,4.77
2018-08-17T15:29:20.265Z,5.10
2018-08-17T15:31:48.494Z,5.17
2018-08-17T15:34:16.693Z,4.50
2018-08-17T15:36:44.913Z,4.30
2018-08-17T15:39:13.136Z,5.00
2018-08-17T15:41:44.216Z,4.80
2018-08-17T15:44:16.662Z,5.40
2018-08-17T15:46:44.914Z,4.80
2018-08-17T15:49:20.013Z,4.83
2018-08-17T15:51:48.282Z,4.80
2018-08-17T15:54:16.495Z,5.17
2018-08-17T15:56:44.724Z,4.80
2018-08-17T15:59:12.946Z,4.30
2018-08-17T16:01:41.198Z,5.00
2018-08-17T16:04:09.811Z,5.50
2018-08-17T16:06:38.127Z,5.10
2018-08-17T16:09:08.545Z,4.77
2018-08-17T16:11:36.791Z,4.17
2018-08-17T16:14:05.531Z,4.63
2018-08-17T16:16:33.743Z,4.57
2018-08-17T16:19:02.580Z,4.50
2018-08-17T16:21:30.801Z,5.23
2018-08-17T16:23:59.017Z,4.33
2018-08-17T16:26:27.278Z,5.10
2018-08-17T16:28:55.489Z,4.30
2018-08-17T16:31:23.765Z,4.80
2018-08-17T16:33:51.975Z,4.60
2018-08-17T16:36:20.220Z,4.43
2018-08-17T16:38:48.454Z,4.10
2018-08-17T16:41:16.680Z,3.70
2018-08-17T16:43:46.660Z,4.20
2018-08-17T16:46:14.930Z,4.60
2018-08-17T16:48:43.658Z,3.77
2018-08-17T16:51:12.236Z,3.97
2018-08-17T16:53:40.454Z,3.63
2018-08-17T16:56:08.704Z,3.70
2018-08-17T16:58:36.917Z,3.80
2018-08-17T17:01:05.138Z,4.17
2018-08-17T17:03:33.353Z,4.13
2018-08-17T17:06:02.701Z,3.97
2018-08-17T17:08:31.443Z,4.10
2018-08-17T17:11:00.228Z,3.87
2018-08-17T17:13:28.443Z,4.23
2018-08-17T17:15:56.643Z,4.10
2018-08-17T17:18:24.875Z,4.30
2018-08-17T17:20:53.154Z,3.83
2018-08-17T17:23:21.322Z,3.90
2018-08-17T17:25:49.526Z,4.40
2018-08-17T17:28:17.757Z,3.93
2018-08-17T17:30:49.894Z,3.83
2018-08-17T17:33:18.275Z,4.37
2018-08-17T17:35:46.523Z,4.37
2018-08-17T17:38:14.798Z,3.93
2018-08-17T17:40:43.089Z,4.07
2018-08-17T17:43:11.475Z,4.43
2018-08-17T17:45:40.156Z,3.90
2018-08-17T17:48:08.943Z,4.40
2018-08-17T17:50:37.225Z,3.97
2018-08-17T17:53:05.486Z,4.40
2018-08-17T17:55:42.576Z,4.20
2018-08-17T17:58:11.315Z,4.13
2018-08-17T18:00:39.517Z,4.30
2018-08-17T18:03:08.533Z,4.13
2018-08-17T18:05:36.750Z,4.27
2018-08-17T18:08:10.698Z,4.93
2018-08-17T18:10:38.921Z,3.93
2018-08-17T18:13:08.085Z,4.70
2018-08-17T18:15:36.219Z,5.00
2018-08-17T18:18:04.450Z,5.30
2018-08-17T18:20:33.062Z,5.10
2018-08-17T18:23:01.297Z,5.97
2018-08-17T18:25:29.499Z,5.50
2018-08-17T18:27:57.984Z,6.13
2018-08-17T18:30:26.207Z,6.30
2018-08-17T18:32:54.439Z,6.90
2018-08-17T18:35:22.667Z,6.20
2018-08-17T18:37:51.145Z,6.87
2018-08-17T18:40:19.376Z,7.50
2018-08-17T18:42:48.418Z,6.33
2018-08-17T18:45:16.642Z,6.50
2018-08-17T18:47:44.888Z,5.03
2018-08-17T18:50:13.105Z,4.87
2018-08-17T18:52:41.363Z,4.23
2018-08-17T18:55:09.601Z,5.47
2018-08-17T18:57:37.936Z,4.87
2018-08-17T19:00:08.544Z,4.60
2018-08-17T19:02:36.905Z,5.60
2018-08-17T19:05:05.239Z,4.77
2018-08-17T19:07:33.445Z,5.13
2018-08-17T19:10:01.719Z,5.33
2018-08-17T19:12:29.903Z,5.40
2018-08-17T19:14:58.138Z,5.17
2018-08-17T19:17:32.626Z,5.30
2018-08-17T19:20:00.847Z,5.50
2018-08-17T19:22:35.455Z,5.60
2018-08-17T19:25:04.297Z,6.10
2018-08-17T19:27:35.138Z,6.27
2018-08-17T19:30:05.754Z,7.77
2018-08-17T19:32:34.010Z,7.17
2018-08-17T19:35:02.230Z,8.17
2018-08-17T19:37:30.723Z,8.40
2018-08-17T19:39:58.957Z,7.40
2018-08-17T19:42:27.209Z,5.20
2018-08-17T19:44:55.438Z,4.30
2018-08-17T19:47:23.642Z,5.63
2018-08-17T19:49:51.863Z,4.63
2018-08-17T19:52:20.090Z,5.00
2018-08-17T19:54:48.314Z,4.30
2018-08-17T19:57:16.527Z,4.70
2018-08-17T19:59:44.860Z,4.30
2018-08-17T20:02:13.129Z,4.87
2018-08-17T20:04:41.350Z,4.80
2018-08-17T20:07:09.626Z,4.40
2018-08-17T20:09:37.846Z,4.80
2018-08-17T20:12:06.095Z,4.20
2018-08-17T20:14:34.330Z,3.73
2018-08-17T20:17:02.625Z,3.50
2018-08-17T20:19:36.475Z,3.50
2018-08-17T20:22:04.710Z,2.93
2018-08-17T20:24:32.980Z,4.00
2018-08-17T20:27:01.241Z,3.93
2018-08-17T20:29:29.438Z,3.40
2018-08-17T20:31:57.687Z,4.07
2018-08-17T20:34:25.891Z,3.67
2018-08-17T20:36:54.144Z,3.93
2018-08-17T20:39:22.347Z,3.70
2018-08-17T20:41:50.570Z,4.10
2018-08-17T20:44:18.834Z,3.63
2018-08-17T20:46:47.975Z,4.20
2018-08-17T20:49:16.192Z,4.43
2018-08-17T20:51:50.660Z,4.47
2018-08-17T20:54:18.859Z,4.30
2018-08-17T20:56:47.086Z,4.27
2018-08-17T20:59:15.294Z,3.87
2018-08-17T21:01:43.521Z,4.33
2018-08-17T21:04:11.731Z,3.70
2018-08-17T21:06:39.967Z,4.50
2018-08-17T21:09:08.245Z,3.70
2018-08-17T21:11:36.538Z,3.60
2018-08-17T21:14:04.689Z,4.13
2018-08-17T21:16:32.927Z,3.73
2018-08-17T21:19:01.146Z,3.40
2018-08-17T21:21:29.477Z,3.70
2018-08-17T21:23:57.657Z,3.30
2018-08-17T21:26:26.011Z,3.27
2018-08-17T21:28:54.276Z,3.70
2018-08-17T21:31:22.471Z,3.87
2018-08-17T21:33:50.682Z,3.57
2018-08-17T21:36:18.904Z,2.90
2018-08-17T21:39:06.570Z,3.13
2018-08-17T21:41:34.826Z,3.77
2018-08-17T21:44:03.019Z,3.10
2018-08-17T21:46:31.248Z,3.40
2018-08-17T21:48:59.450Z,3.20
2018-08-17T21:51:31.905Z,3.87
2018-08-17T21:54:00.225Z,3.70
2018-08-17T21:56:28.454Z,3.60
2018-08-17T21:58:56.696Z,3.83
2018-08-17T22:01:24.920Z,3.97
2018-08-17T22:03:53.138Z,3.57
2018-08-17T22:06:21.346Z,4.10
2018-08-17T22:08:49.571Z,3.67
2018-08-17T22:11:30.947Z,3.53
2018-08-17T22:13:59.181Z,3.83
2018-08-17T22:16:27.400Z,3.50
2018-08-17T22:18:55.625Z,4.07
2018-08-17T22:21:24.839Z,3.70
2018-08-17T22:23:53.166Z,4.20
2018-08-17T22:26:21.835Z,3.87
2018-08-17T22:28:50.082Z,4.30
2018-08-17T22:31:49.366Z,4.80
2018-08-17T22:34:17.587Z,4.10
2018-08-17T22:36:45.794Z,4.63
2018-08-17T22:39:14.018Z,4.90
2018-08-17T22:41:42.271Z,4.70
2018-08-17T22:44:15.809Z,5.10
2018-08-17T22:46:44.918Z,4.60
2018-08-17T22:49:13.138Z,4.90
2018-08-17T22:51:41.378Z,4.40
2018-08-17T22:54:09.602Z,4.70
2018-08-17T22:56:38.539Z,4.80
2018-08-17T22:59:06.748Z,4.30
2018-08-17T23:01:34.975Z,4.70
2018-08-17T23:04:03.192Z,4.83
2018-08-17T23:06:31.425Z,4.83
2018-08-17T23:08:59.651Z,4.17
2018-08-17T23:11:36.078Z,4.37
2018-08-17T23:14:09.294Z,3.87
2018-08-17T23:16:37.503Z,3.80
2018-08-17T23:19:05.850Z,4.07
2018-08-17T23:21:34.060Z,4.40
2018-08-17T23:24:02.277Z,3.90
2018-08-17T23:26:30.487Z,4.03
2018-08-17T23:28:58.735Z,4.60
2018-08-17T23:31:27.035Z,3.60
2018-08-17T23:33:55.899Z,3.60
2018-08-17T23:36:24.107Z,3.70
2018-08-17T23:38:52.348Z,3.33
2018-08-17T23:41:20.724Z,3.53
2018-08-17T23:43:48.800Z,3.67
2018-08-17T23:46:17.001Z,4.20
2018-08-17T23:48:45.286Z,3.50
2018-08-17T23:51:13.531Z,3.90
2018-08-17T23:53:41.767Z,3.67
2018-08-17T23:56:09.996Z,3.97
2018-08-17T23:58:44.818Z,3.93
